createdAt,value
2019-05-31T00:01:55.141Z,15.30
2019-05-31T00:04:23.937Z,15.30
2019-05-31T00:06:53.768Z,15.30
2019-05-31T00:09:23.117Z,15.30
2019-05-31T00:11:52.027Z,15.30
2019-05-31T00:14:21.200Z,15.30
2019-05-31T00:16:49.851Z,15.30
2019-05-31T00:19:18.468Z,15.30
2019-05-31T00:21:47.333Z,15.30
2019-05-31T00:24:15.956Z,15.30
2019-05-31T00:26:44.593Z,15.30
2019-05-31T00:29:13.447Z,15.30
2019-05-31T00:31:42.306Z,15.30
2019-05-31T00:34:12.537Z,15.30
2019-05-31T00:36:41.163Z,15.30
2019-05-31T00:39:10.017Z,15.30
2019-05-31T00:41:38.908Z,15.30
2019-05-31T00:44:07.647Z,15.30
2019-05-31T00:46:36.491Z,15.30
2019-05-31T00:49:05.934Z,15.30
2019-05-31T00:51:34.677Z,15.30
2019-05-31T00:54:04.380Z,15.30
2019-05-31T00:56:33.100Z,15.20
2019-05-31T00:59:02.816Z,15.20
2019-05-31T01:01:31.580Z,15.20
2019-05-31T01:04:01.047Z,15.20
2019-05-31T01:06:30.056Z,15.20
2019-05-31T01:08:59.338Z,15.20
2019-05-31T01:11:28.000Z,15.20
2019-05-31T01:13:57.736Z,15.30
2019-05-31T01:16:26.641Z,15.30
2019-05-31T01:18:55.259Z,15.30
2019-05-31T01:21:23.841Z,15.30
2019-05-31T01:23:52.600Z,15.30
2019-05-31T01:26:21.225Z,15.30
2019-05-31T01:28:49.845Z,15.30
2019-05-31T01:31:18.425Z,15.30
2019-05-31T01:33:47.049Z,15.30
2019-05-31T01:36:15.637Z,15.30
2019-05-31T01:38:44.325Z,15.30
2019-05-31T01:41:12.910Z,15.30
2019-05-31T01:43:41.803Z,15.30
2019-05-31T01:46:11.413Z,15.20
2019-05-31T01:48:40.032Z,15.30
2019-05-31T01:51:09.752Z,15.30
2019-05-31T01:53:38.354Z,15.30
2019-05-31T01:56:06.985Z,15.30
2019-05-31T01:58:35.564Z,15.30
2019-05-31T02:01:05.480Z,15.30
2019-05-31T02:03:34.796Z,15.30
2019-05-31T02:06:04.216Z,15.30
2019-05-31T02:08:32.871Z,15.30
2019-05-31T02:11:01.476Z,15.30
2019-05-31T02:13:30.168Z,15.30
2019-05-31T02:15:58.762Z,15.30
2019-05-31T02:18:27.362Z,15.30
2019-05-31T02:20:56.541Z,15.20
2019-05-31T02:23:26.331Z,15.30
2019-05-31T02:25:54.917Z,15.30
2019-05-31T02:28:23.886Z,15.20
2019-05-31T02:30:52.476Z,15.20
2019-05-31T02:33:21.101Z,15.20
2019-05-31T02:35:49.764Z,15.30
2019-05-31T02:38:18.472Z,15.20
2019-05-31T02:40:47.367Z,15.30
2019-05-31T02:43:16.706Z,15.30
2019-05-31T02:45:48.154Z,15.30
2019-05-31T02:48:18.961Z,15.30
2019-05-31T02:50:47.092Z,15.30
2019-05-31T02:53:16.978Z,15.30
2019-05-31T02:55:47.451Z,15.30
2019-05-31T02:58:21.153Z,15.30
2019-05-31T03:00:50.082Z,15.30
2019-05-31T03:03:20.707Z,15.30
2019-05-31T03:05:51.737Z,15.30
2019-05-31T03:08:23.808Z,15.30
2019-05-31T03:10:53.029Z,15.30
2019-05-31T03:13:21.948Z,15.30
2019-05-31T03:16:06.028Z,15.30
2019-05-31T03:18:22.226Z,15.30
2019-05-31T03:20:50.883Z,15.30
2019-05-31T03:23:20.889Z,15.30
2019-05-31T03:25:49.776Z,15.30
2019-05-31T03:28:19.544Z,15.30
2019-05-31T03:30:48.634Z,15.30
2019-05-31T03:33:22.348Z,15.30
2019-05-31T03:35:47.488Z,15.30
2019-05-31T03:38:16.650Z,15.30
2019-05-31T03:40:45.488Z,15.30
2019-05-31T03:43:14.958Z,15.30
2019-05-31T03:45:44.353Z,15.30
2019-05-31T03:48:14.952Z,15.40
2019-05-31T03:50:43.586Z,15.40
2019-05-31T03:53:12.214Z,15.40
2019-05-31T03:55:41.208Z,15.40
2019-05-31T03:58:11.698Z,15.40
2019-05-31T04:00:54.632Z,15.40
2019-05-31T04:03:23.890Z,15.40
2019-05-31T04:05:55.565Z,15.40
2019-05-31T04:08:27.480Z,15.40
2019-05-31T04:10:54.889Z,15.40
2019-05-31T04:13:25.484Z,15.50
2019-05-31T04:15:54.321Z,15.50
2019-05-31T04:18:32.291Z,15.50
2019-05-31T04:20:57.857Z,15.50
2019-05-31T04:23:27.408Z,15.50
2019-05-31T04:25:56.659Z,15.60
2019-05-31T04:28:27.549Z,15.60
2019-05-31T04:30:57.000Z,15.60
2019-05-31T04:33:26.995Z,15.70
2019-05-31T04:35:56.273Z,15.70
2019-05-31T04:38:26.906Z,15.80
2019-05-31T04:40:55.214Z,15.90
2019-05-31T04:43:32.124Z,15.90
2019-05-31T04:46:01.278Z,16.00
2019-05-31T04:48:29.915Z,16.10
2019-05-31T04:51:02.370Z,16.20
2019-05-31T04:53:38.083Z,16.20
2019-05-31T04:56:06.847Z,16.20
2019-05-31T04:58:35.945Z,16.20
2019-05-31T05:01:04.684Z,16.20
2019-05-31T05:03:33.609Z,16.20
2019-05-31T05:06:02.450Z,16.20
2019-05-31T05:08:31.094Z,16.30
2019-05-31T05:10:59.781Z,16.50
2019-05-31T05:13:28.653Z,16.60
2019-05-31T05:15:57.361Z,16.70
2019-05-31T05:18:29.677Z,17.10
2019-05-31T05:20:56.849Z,17.60
2019-05-31T05:23:27.073Z,18.10
2019-05-31T05:25:55.999Z,18.40
2019-05-31T05:28:25.504Z,18.30
2019-05-31T05:30:54.408Z,18.40
2019-05-31T05:33:24.089Z,18.80
2019-05-31T05:35:53.095Z,19.30
2019-05-31T05:38:22.490Z,19.50
2019-05-31T05:40:51.453Z,19.50
2019-05-31T05:43:20.760Z,19.40
2019-05-31T05:45:49.510Z,19.10
2019-05-31T05:48:19.324Z,19.10
2019-05-31T05:50:47.958Z,19.10
2019-05-31T05:53:16.604Z,19.30
2019-05-31T05:55:45.164Z,19.10
2019-05-31T05:58:13.784Z,18.90
2019-05-31T06:00:42.710Z,19.00
2019-05-31T06:03:11.599Z,19.00
2019-05-31T06:05:40.359Z,18.90
2019-05-31T06:08:09.287Z,19.00
2019-05-31T06:10:38.108Z,19.30
2019-05-31T06:13:06.997Z,19.50
2019-05-31T06:15:36.388Z,19.50
2019-05-31T06:18:05.392Z,19.40
2019-05-31T06:20:34.285Z,19.30
2019-05-31T06:23:03.327Z,19.20
2019-05-31T06:25:36.239Z,19.10
2019-05-31T06:28:03.046Z,19.00
2019-05-31T06:30:32.865Z,18.90
2019-05-31T06:33:01.494Z,19.30
2019-05-31T06:35:30.783Z,19.90
2019-05-31T06:37:59.372Z,20.30
2019-05-31T06:40:29.113Z,20.60
2019-05-31T06:42:58.065Z,20.70
2019-05-31T06:45:26.976Z,21.00
2019-05-31T06:47:56.412Z,21.00
2019-05-31T06:50:26.124Z,20.90
2019-05-31T06:52:54.777Z,20.80
2019-05-31T06:55:23.632Z,20.30
2019-05-31T06:57:52.601Z,20.10
2019-05-31T07:00:21.912Z,20.20
2019-05-31T07:02:50.836Z,20.50
2019-05-31T07:05:19.558Z,20.50
2019-05-31T07:07:48.217Z,20.30
2019-05-31T07:10:16.974Z,20.20
2019-05-31T07:12:45.600Z,20.20
2019-05-31T07:15:14.693Z,20.20
2019-05-31T07:17:54.581Z,19.90
2019-05-31T07:20:14.573Z,19.70
2019-05-31T07:22:43.156Z,19.90
2019-05-31T07:25:12.126Z,20.30
2019-05-31T07:27:40.740Z,20.70
2019-05-31T07:30:11.538Z,21.00
2019-05-31T07:32:40.189Z,21.20
2019-05-31T07:35:09.183Z,21.30
2019-05-31T07:37:40.421Z,21.50
2019-05-31T07:40:08.977Z,21.50
2019-05-31T07:42:39.159Z,21.80
2019-05-31T07:45:09.139Z,22.20
2019-05-31T07:47:38.397Z,22.40
2019-05-31T07:50:08.223Z,22.60
2019-05-31T07:52:37.125Z,22.60
2019-05-31T07:55:06.985Z,22.80
2019-05-31T07:57:36.220Z,22.80
2019-05-31T08:00:08.959Z,23.20
2019-05-31T08:02:37.977Z,23.40
2019-05-31T08:05:07.731Z,23.70
2019-05-31T08:07:36.654Z,23.90
2019-05-31T08:10:07.274Z,24.00
2019-05-31T08:12:35.946Z,24.20
2019-05-31T08:15:07.975Z,24.30
2019-05-31T08:17:50.000Z,24.40
2019-05-31T08:20:08.278Z,24.30
2019-05-31T08:22:37.052Z,24.20
2019-05-31T08:25:06.924Z,24.20
2019-05-31T08:27:36.508Z,24.00
2019-05-31T08:30:07.397Z,23.30
2019-05-31T08:32:37.003Z,23.20
2019-05-31T08:35:06.729Z,23.50
2019-05-31T08:37:36.801Z,23.90
2019-05-31T08:40:08.600Z,24.40
2019-05-31T08:42:37.192Z,24.80
2019-05-31T08:45:07.431Z,24.80
2019-05-31T08:47:42.130Z,24.60
2019-05-31T08:50:07.343Z,24.40
2019-05-31T08:52:46.199Z,24.40
2019-05-31T08:55:14.089Z,24.60
2019-05-31T08:57:42.780Z,24.80
2019-05-31T09:00:13.502Z,24.80
2019-05-31T09:02:42.157Z,25.10
2019-05-31T09:05:11.798Z,25.30
2019-05-31T09:07:40.407Z,25.60
2019-05-31T09:10:10.587Z,25.70
2019-05-31T09:12:40.092Z,25.60
2019-05-31T09:15:09.245Z,25.50
2019-05-31T09:17:40.094Z,25.10
2019-05-31T09:20:10.301Z,25.00
2019-05-31T09:22:39.420Z,25.20
2019-05-31T09:25:08.701Z,25.30
2019-05-31T09:27:49.891Z,25.40
2019-05-31T09:30:20.833Z,25.40
2019-05-31T09:32:40.179Z,25.40
2019-05-31T09:35:10.094Z,25.70
2019-05-31T09:37:39.212Z,25.80
2019-05-31T09:40:09.001Z,25.90
2019-05-31T09:42:37.649Z,25.60
2019-05-31T09:45:09.176Z,25.40
2019-05-31T09:47:37.917Z,25.40
2019-05-31T09:50:13.663Z,25.70
2019-05-31T09:52:40.418Z,25.50
2019-05-31T09:55:10.677Z,25.40
2019-05-31T09:57:43.859Z,25.00
2019-05-31T10:00:16.073Z,24.60
2019-05-31T10:02:44.832Z,24.60
2019-05-31T10:05:14.561Z,24.40
2019-05-31T10:07:43.397Z,24.50
2019-05-31T10:10:12.560Z,24.40
2019-05-31T10:12:41.705Z,24.10
2019-05-31T10:15:11.614Z,24.10
2019-05-31T10:17:43.403Z,24.00
2019-05-31T10:20:28.679Z,23.90
2019-05-31T10:22:43.854Z,23.80
2019-05-31T10:25:14.764Z,23.90
2019-05-31T10:27:43.906Z,24.00
2019-05-31T10:30:14.742Z,24.30
2019-05-31T10:32:44.220Z,24.30
2019-05-31T10:35:13.741Z,24.50
2019-05-31T10:37:42.377Z,24.90
2019-05-31T10:40:11.214Z,25.40
2019-05-31T10:42:40.080Z,25.40
2019-05-31T10:45:09.951Z,25.40
2019-05-31T10:47:38.619Z,25.60
2019-05-31T10:50:09.444Z,25.60
2019-05-31T10:52:39.660Z,25.40
2019-05-31T10:55:09.241Z,25.40
2019-05-31T10:57:38.521Z,25.50
2019-05-31T11:00:12.162Z,25.70
2019-05-31T11:02:41.105Z,25.80
2019-05-31T11:05:10.441Z,25.60
2019-05-31T11:07:39.313Z,25.40
2019-05-31T11:10:09.544Z,25.30
2019-05-31T11:12:39.106Z,25.30
2019-05-31T11:15:10.163Z,25.60
2019-05-31T11:17:44.767Z,25.70
2019-05-31T11:20:10.295Z,25.70
2019-05-31T11:22:39.773Z,25.70
2019-05-31T11:25:09.130Z,25.80
2019-05-31T11:27:38.127Z,25.80
2019-05-31T11:30:11.228Z,26.00
2019-05-31T11:32:40.634Z,26.20
2019-05-31T11:35:09.786Z,26.30
2019-05-31T11:37:38.957Z,26.30
2019-05-31T11:40:09.877Z,26.20
2019-05-31T11:43:01.103Z,26.00
2019-05-31T11:45:09.994Z,25.70
2019-05-31T11:47:44.147Z,25.40
2019-05-31T11:50:10.480Z,25.10
2019-05-31T11:52:39.392Z,24.80
2019-05-31T11:55:22.409Z,24.40
2019-05-31T11:57:39.251Z,24.10
2019-05-31T12:00:09.444Z,23.80
2019-05-31T12:02:39.564Z,23.50
2019-05-31T12:05:08.739Z,23.20
2019-05-31T12:07:37.944Z,23.10
2019-05-31T12:10:08.045Z,23.00
2019-05-31T12:12:38.570Z,23.00
2019-05-31T12:15:07.761Z,23.00
2019-05-31T12:17:36.412Z,23.10
2019-05-31T12:20:16.301Z,23.20
2019-05-31T12:22:44.604Z,23.30
2019-05-31T12:25:15.366Z,23.50
2019-05-31T12:27:45.160Z,23.70
2019-05-31T12:30:22.006Z,23.80
2019-05-31T12:32:47.085Z,24.00
2019-05-31T12:35:16.216Z,24.10
2019-05-31T12:37:45.111Z,24.10
2019-05-31T12:40:15.081Z,24.00
2019-05-31T12:42:44.743Z,23.90
2019-05-31T12:45:16.655Z,23.70
2019-05-31T12:47:50.113Z,23.60
2019-05-31T12:50:21.074Z,23.60
2019-05-31T12:52:47.399Z,23.60
2019-05-31T12:55:16.694Z,23.70
2019-05-31T12:57:45.309Z,23.80
2019-05-31T13:00:16.121Z,24.00
2019-05-31T13:02:49.049Z,24.30
2019-05-31T13:05:15.450Z,24.40
2019-05-31T13:07:46.502Z,24.40
2019-05-31T13:10:16.926Z,24.40
2019-05-31T13:12:46.943Z,24.30
2019-05-31T13:15:16.397Z,24.30
2019-05-31T13:17:46.351Z,24.20
2019-05-31T13:20:16.063Z,24.20
2019-05-31T13:22:45.727Z,24.10
2019-05-31T13:25:16.708Z,24.00
2019-05-31T13:27:47.355Z,24.00
2019-05-31T13:30:16.101Z,23.90
2019-05-31T13:32:47.257Z,24.10
2019-05-31T13:35:15.956Z,24.40
2019-05-31T13:37:45.547Z,24.60
2019-05-31T13:40:15.368Z,24.80
2019-05-31T13:42:45.407Z,24.80
2019-05-31T13:45:15.709Z,24.80
2019-05-31T13:47:45.871Z,24.60
2019-05-31T13:50:15.495Z,24.50
2019-05-31T13:52:44.274Z,24.40
2019-05-31T13:55:13.208Z,24.30
2019-05-31T13:57:41.814Z,24.10
2019-05-31T14:00:11.790Z,24.00
2019-05-31T14:02:40.384Z,23.80
2019-05-31T14:05:09.597Z,23.70
2019-05-31T14:07:38.225Z,23.60
2019-05-31T14:10:07.741Z,23.60
2019-05-31T14:12:36.500Z,23.60
2019-05-31T14:15:09.181Z,23.60
2019-05-31T14:17:37.887Z,23.70
2019-05-31T14:20:09.518Z,23.70
2019-05-31T14:22:38.244Z,23.80
2019-05-31T14:25:08.127Z,23.90
2019-05-31T14:27:37.365Z,23.90
2019-05-31T14:30:10.444Z,23.80
2019-05-31T14:32:39.183Z,23.70
2019-05-31T14:35:08.830Z,23.60
2019-05-31T14:37:37.506Z,23.50
2019-05-31T14:40:06.779Z,23.50
2019-05-31T14:42:35.786Z,23.50
2019-05-31T14:45:08.539Z,23.50
2019-05-31T14:47:37.762Z,23.50
2019-05-31T14:50:08.366Z,23.50
2019-05-31T14:52:37.246Z,23.60
2019-05-31T14:55:06.860Z,23.60
2019-05-31T14:57:35.633Z,23.60
2019-05-31T15:00:07.928Z,23.50
2019-05-31T15:02:36.821Z,23.50
2019-05-31T15:05:09.008Z,23.50
2019-05-31T15:07:38.027Z,23.40
2019-05-31T15:10:08.520Z,23.30
2019-05-31T15:12:37.889Z,23.10
2019-05-31T15:15:08.291Z,23.00
2019-05-31T15:17:37.267Z,22.90
2019-05-31T15:20:08.390Z,22.80
2019-05-31T15:22:37.012Z,22.80
2019-05-31T15:25:07.351Z,22.70
2019-05-31T15:27:36.114Z,22.70
2019-05-31T15:30:06.658Z,22.60
2019-05-31T15:32:49.731Z,22.50
2019-05-31T15:35:36.005Z,22.50
2019-05-31T15:38:05.500Z,22.60
2019-05-31T15:40:37.431Z,22.50
2019-05-31T15:43:06.491Z,22.60
2019-05-31T15:45:40.913Z,22.50
2019-05-31T15:48:09.536Z,22.40
2019-05-31T15:50:38.169Z,22.40
2019-05-31T15:53:18.620Z,22.50
2019-05-31T15:55:49.220Z,22.70
2019-05-31T15:58:07.441Z,22.70
2019-05-31T16:00:39.719Z,22.80
2019-05-31T16:03:09.507Z,22.80
2019-05-31T16:05:38.334Z,22.90
2019-05-31T16:08:07.681Z,23.00
2019-05-31T16:10:36.745Z,22.90
2019-05-31T16:13:07.228Z,22.90
2019-05-31T16:15:36.166Z,22.80
2019-05-31T16:18:05.522Z,22.80
2019-05-31T16:20:34.332Z,22.70
2019-05-31T16:23:03.648Z,22.70
2019-05-31T16:25:32.619Z,22.50
2019-05-31T16:28:09.499Z,22.60
2019-05-31T16:30:38.145Z,22.40
2019-05-31T16:33:06.747Z,22.30
2019-05-31T16:35:35.657Z,22.30
2019-05-31T16:38:04.408Z,22.10
2019-05-31T16:40:35.643Z,21.90
2019-05-31T16:43:06.047Z,21.80
2019-05-31T16:45:35.339Z,21.60
2019-05-31T16:48:06.151Z,21.40
2019-05-31T16:50:43.292Z,21.30
2019-05-31T16:53:11.906Z,21.20
2019-05-31T16:55:40.592Z,21.10
2019-05-31T16:58:09.353Z,21.00
2019-05-31T17:00:38.049Z,21.00
2019-05-31T17:03:12.561Z,21.00
2019-05-31T17:05:37.106Z,20.90
2019-05-31T17:08:07.052Z,20.90
2019-05-31T17:10:35.958Z,20.80
2019-05-31T17:13:05.784Z,20.80
2019-05-31T17:15:34.658Z,20.70
2019-05-31T17:18:03.914Z,20.70
2019-05-31T17:20:32.618Z,20.80
2019-05-31T17:23:02.217Z,20.80
2019-05-31T17:25:31.278Z,20.80
2019-05-31T17:27:59.866Z,20.80
2019-05-31T17:30:36.792Z,20.90
2019-05-31T17:33:06.163Z,20.90
2019-05-31T17:35:35.417Z,20.80
2019-05-31T17:38:05.265Z,20.80
2019-05-31T17:40:33.997Z,20.80
2019-05-31T17:43:03.566Z,20.90
2019-05-31T17:45:32.269Z,20.80
2019-05-31T17:48:00.964Z,20.90
2019-05-31T17:50:29.553Z,20.90
2019-05-31T17:52:58.138Z,20.90
2019-05-31T17:55:26.756Z,20.90
2019-05-31T17:57:55.373Z,21.00
2019-05-31T18:00:35.270Z,21.00
2019-05-31T18:03:04.983Z,21.00
2019-05-31T18:05:33.773Z,20.90
2019-05-31T18:08:02.434Z,21.00
2019-05-31T18:10:39.141Z,20.90
2019-05-31T18:13:10.518Z,20.90
2019-05-31T18:15:40.116Z,20.80
2019-05-31T18:18:10.806Z,20.70
2019-05-31T18:20:39.892Z,20.60
2019-05-31T18:23:09.077Z,20.50
2019-05-31T18:25:37.939Z,20.40
2019-05-31T18:28:07.918Z,20.30
2019-05-31T18:30:46.100Z,20.20
2019-05-31T18:33:08.746Z,20.10
2019-05-31T18:35:37.571Z,20.10
2019-05-31T18:38:06.318Z,20.00
2019-05-31T18:40:34.921Z,19.90
2019-05-31T18:43:03.577Z,19.90
2019-05-31T18:45:32.265Z,19.90
2019-05-31T18:48:00.926Z,19.80
2019-05-31T18:50:29.553Z,19.80
2019-05-31T18:52:58.143Z,19.80
2019-05-31T18:55:38.893Z,19.70
2019-05-31T18:57:57.066Z,19.70
2019-05-31T19:00:43.451Z,19.60
2019-05-31T19:03:13.023Z,19.60
2019-05-31T19:05:41.801Z,19.50
2019-05-31T19:08:15.223Z,19.50
2019-05-31T19:10:43.858Z,19.40
2019-05-31T19:13:15.499Z,19.40
2019-05-31T19:15:44.362Z,19.40
2019-05-31T19:18:13.460Z,19.30
2019-05-31T19:20:57.169Z,19.30
2019-05-31T19:23:13.365Z,19.30
2019-05-31T19:25:50.282Z,19.10
2019-05-31T19:28:13.603Z,19.10
2019-05-31T19:30:44.617Z,19.10
2019-05-31T19:33:14.557Z,19.00
2019-05-31T19:35:43.760Z,19.00
2019-05-31T19:38:12.345Z,18.90
2019-05-31T19:40:41.410Z,18.80
2019-05-31T19:43:10.189Z,18.70
2019-05-31T19:45:39.006Z,18.70
2019-05-31T19:48:07.913Z,18.60
2019-05-31T19:53:15.807Z,18.40
2019-05-31T19:55:44.608Z,18.40
2019-05-31T19:58:13.175Z,18.30
2019-05-31T20:00:42.268Z,18.30
2019-05-31T20:03:11.201Z,18.20
2019-05-31T20:05:40.141Z,18.20
2019-05-31T20:08:08.822Z,18.20
2019-05-31T20:10:37.515Z,18.40
2019-05-31T20:13:06.617Z,18.10
2019-05-31T20:15:35.410Z,18.00
2019-05-31T20:18:04.470Z,18.00
2019-05-31T20:20:33.471Z,18.00
2019-05-31T20:23:02.305Z,18.00
2019-05-31T20:25:34.850Z,17.90
2019-05-31T20:28:01.365Z,17.90
2019-05-31T20:30:35.300Z,17.90
2019-05-31T20:33:00.601Z,17.90
2019-05-31T20:35:42.576Z,17.80
2019-05-31T20:37:59.533Z,17.70
2019-05-31T20:40:32.215Z,17.60
2019-05-31T20:45:29.310Z,17.60
2019-05-31T20:47:58.097Z,17.60
2019-05-31T20:50:27.501Z,17.50
2019-05-31T20:52:56.128Z,17.50
2019-05-31T20:55:25.689Z,17.40
2019-05-31T20:57:54.330Z,17.40
2019-05-31T21:00:24.912Z,17.40
2019-05-31T21:02:53.565Z,17.40
2019-05-31T21:05:22.818Z,17.30
2019-05-31T21:07:51.510Z,17.30
2019-05-31T21:10:21.253Z,17.30
2019-05-31T21:12:50.161Z,17.30
2019-05-31T21:15:18.924Z,17.30
2019-05-31T21:17:47.507Z,17.30
2019-05-31T21:20:16.594Z,17.30
2019-05-31T21:22:45.183Z,17.30
2019-05-31T21:25:14.650Z,17.30
2019-05-31T21:27:43.269Z,17.30
2019-05-31T21:30:14.478Z,17.30
2019-05-31T21:32:43.107Z,17.20
2019-05-31T21:35:12.412Z,17.20
2019-05-31T21:37:41.045Z,17.20
2019-05-31T21:40:10.265Z,17.20
2019-05-31T21:42:39.180Z,17.20
2019-05-31T21:45:09.110Z,17.20
2019-05-31T21:47:38.109Z,17.10
2019-05-31T21:50:08.711Z,17.00
2019-05-31T21:52:37.302Z,16.90
2019-05-31T21:55:07.075Z,16.90
2019-05-31T21:57:35.680Z,16.80
2019-05-31T22:00:08.118Z,16.70
2019-05-31T22:02:36.804Z,16.70
2019-05-31T22:05:07.128Z,16.60
2019-05-31T22:07:36.844Z,16.60
2019-05-31T22:10:08.508Z,16.60
2019-05-31T22:12:37.430Z,16.70
2019-05-31T22:15:07.873Z,16.70
2019-05-31T22:17:36.540Z,16.60
2019-05-31T22:20:06.495Z,16.50
2019-05-31T22:22:36.431Z,16.50
2019-05-31T22:25:06.937Z,16.50
2019-05-31T22:27:36.940Z,16.60
2019-05-31T22:30:08.658Z,16.60
2019-05-31T22:32:37.586Z,16.60
2019-05-31T22:35:08.004Z,16.60
2019-05-31T22:37:36.533Z,16.60
2019-05-31T22:40:08.447Z,16.50
2019-05-31T22:42:37.048Z,16.50
2019-05-31T22:45:06.338Z,16.50
2019-05-31T22:47:35.170Z,16.40
2019-05-31T22:50:06.100Z,16.40
2019-05-31T22:52:35.612Z,16.30
2019-05-31T22:55:06.409Z,16.40
2019-05-31T22:57:35.798Z,16.30
2019-05-31T23:00:06.204Z,16.30
2019-05-31T23:02:34.798Z,16.30
2019-05-31T23:05:04.101Z,16.40
2019-05-31T23:07:33.584Z,16.30
2019-05-31T23:10:03.401Z,16.30
2019-05-31T23:12:31.985Z,16.30
2019-05-31T23:15:00.891Z,16.30
2019-05-31T23:17:29.593Z,16.30
2019-05-31T23:19:58.201Z,16.30
2019-05-31T23:22:27.097Z,16.30
2019-05-31T23:24:55.680Z,16.30
2019-05-31T23:27:24.309Z,16.30
2019-05-31T23:30:00.647Z,16.20
2019-05-31T23:32:23.240Z,16.10
2019-05-31T23:34:52.117Z,16.10
2019-05-31T23:37:20.742Z,16.10
2019-05-31T23:39:49.404Z,16.00
2019-05-31T23:42:17.970Z,16.00
2019-05-31T23:44:46.849Z,15.90
2019-05-31T23:47:15.901Z,15.80
2019-05-31T23:49:45.394Z,15.80
2019-05-31T23:52:14.377Z,15.70
2019-05-31T23:54:43.586Z,15.70
2019-05-31T23:57:12.428Z,15.70
2019-05-31T23:59:41.981Z,15.70
